createdAt,value
2023-03-10T00:00:39.249Z,95228.09
2023-03-10T00:03:44.891Z,95216.25
2023-03-10T00:06:49.361Z,95219.63
2023-03-10T00:09:53.969Z,95209.81
2023-03-10T00:13:00.189Z,95178.59
2023-03-10T00:16:05.761Z,95197.03
2023-03-10T00:19:10.373Z,95206.50
2023-03-10T00:22:14.870Z,95204.78
2023-03-10T00:25:19.506Z,95197.91
2023-03-10T00:28:25.608Z,95191.59
2023-03-10T00:31:31.617Z,95181.41
2023-03-10T00:34:36.148Z,95178.88
2023-03-10T00:37:40.617Z,95171.78
2023-03-10T00:40:45.332Z,95156.94
2023-03-10T00:43:49.896Z,95158.72
2023-03-10T00:46:54.919Z,95149.53
2023-03-10T00:49:59.754Z,95143.31
2023-03-10T00:53:04.390Z,95130.25
2023-03-10T00:56:13.572Z,95136.94
2023-03-10T00:59:18.102Z,95131.16
2023-03-10T01:02:24.232Z,95100.81
2023-03-10T01:05:29.970Z,95115.47
2023-03-10T01:08:34.458Z,95108.66
2023-03-10T01:11:39.117Z,95102.59
2023-03-10T01:14:43.649Z,95091.53
2023-03-10T01:17:48.199Z,95081.59
2023-03-10T01:20:52.747Z,95078.75
2023-03-10T01:23:57.753Z,95078.59
2023-03-10T01:27:02.335Z,95081.53
2023-03-10T01:30:07.422Z,95073.94
2023-03-10T01:33:13.229Z,95071.72
2023-03-10T01:36:20.924Z,95072.81
2023-03-10T01:39:25.442Z,95062.91
2023-03-10T01:42:30.904Z,95061.28
2023-03-10T01:45:38.697Z,95062.41
2023-03-10T01:48:43.364Z,95057.69
2023-03-10T01:51:53.691Z,95055.88
2023-03-10T01:55:07.775Z,95047.50
2023-03-10T01:58:12.926Z,95052.69
2023-03-10T02:01:18.268Z,95041.25
2023-03-10T02:04:33.090Z,95031.41
2023-03-10T02:07:39.367Z,95022.75
2023-03-10T02:10:46.437Z,95001.78
2023-03-10T02:13:51.150Z,95027.56
2023-03-10T02:16:55.692Z,95022.53
2023-03-10T02:20:30.723Z,95018.72
2023-03-10T02:24:00.234Z,95016.09
2023-03-10T02:27:22.810Z,95013.56
2023-03-10T02:30:50.124Z,95008.50
2023-03-10T02:33:55.780Z,95001.78
2023-03-10T02:37:00.507Z,95004.34
2023-03-10T02:40:32.369Z,94987.19
2023-03-10T02:43:37.794Z,94982.41
2023-03-10T02:46:52.254Z,94976.84
2023-03-10T02:49:56.941Z,94923.97
2023-03-10T02:53:17.659Z,94966.69
2023-03-10T02:56:22.555Z,94955.09
2023-03-10T02:59:27.940Z,94958.47
2023-03-10T03:02:32.874Z,94941.16
2023-03-10T03:05:38.613Z,94944.06
2023-03-10T03:08:43.595Z,94934.31
2023-03-10T03:11:51.889Z,94933.72
2023-03-10T03:14:56.437Z,94934.16
2023-03-10T03:18:01.959Z,94924.41
2023-03-10T03:21:11.253Z,94921.94
2023-03-10T03:24:22.927Z,94921.13
2023-03-10T03:27:28.142Z,94871.50
2023-03-10T03:30:34.077Z,94904.06
2023-03-10T03:33:40.784Z,94888.66
2023-03-10T03:36:46.682Z,94904.03
2023-03-10T03:39:54.587Z,94901.94
2023-03-10T03:43:00.994Z,94906.88
2023-03-10T03:46:05.949Z,94893.06
2023-03-10T03:49:11.362Z,94900.13
2023-03-10T03:52:16.094Z,94893.41
2023-03-10T03:55:20.747Z,94888.50
2023-03-10T03:58:28.085Z,94881.75
2023-03-10T04:01:34.010Z,94881.78
2023-03-10T04:04:40.950Z,94881.38
2023-03-10T04:07:48.145Z,94860.41
2023-03-10T04:10:55.243Z,94859.56
2023-03-10T04:14:03.220Z,94861.69
2023-03-10T04:17:08.876Z,94854.19
2023-03-10T04:20:15.452Z,94850.28
2023-03-10T04:23:24.250Z,94856.41
2023-03-10T04:26:29.656Z,94856.50
2023-03-10T04:29:34.825Z,94854.16
2023-03-10T04:32:41.018Z,94859.66
2023-03-10T04:35:51.331Z,94855.38
2023-03-10T04:38:57.975Z,94850.97
2023-03-10T04:42:07.244Z,94860.81
2023-03-10T04:45:12.942Z,94856.41
2023-03-10T04:48:18.931Z,94827.31
2023-03-10T04:51:24.998Z,94847.50
2023-03-10T04:54:31.895Z,94842.44
2023-03-10T04:57:37.062Z,94836.50
2023-03-10T05:00:56.431Z,94834.25
2023-03-10T05:04:06.546Z,94834.22
2023-03-10T05:07:12.585Z,94833.22
2023-03-10T05:10:23.072Z,94838.44
2023-03-10T05:13:31.709Z,94788.38
2023-03-10T05:16:37.153Z,94843.59
2023-03-10T05:19:41.784Z,94836.19
2023-03-10T05:22:46.395Z,94845.63
2023-03-10T05:25:51.238Z,94852.69
2023-03-10T05:28:58.122Z,94855.78
2023-03-10T05:32:15.423Z,94872.13
2023-03-10T05:35:21.875Z,94868.69
2023-03-10T05:38:26.681Z,94851.41
2023-03-10T05:41:32.971Z,94880.09
2023-03-10T05:44:39.048Z,94881.47
2023-03-10T05:47:46.525Z,94893.25
2023-03-10T05:51:01.937Z,94879.25
2023-03-10T05:54:07.452Z,94889.13
2023-03-10T05:57:13.987Z,94877.47
2023-03-10T06:00:19.760Z,94883.63
2023-03-10T06:03:35.643Z,94877.09
2023-03-10T06:06:40.179Z,94887.81
2023-03-10T06:09:44.722Z,94897.91
2023-03-10T06:12:49.263Z,94907.19
2023-03-10T06:15:56.362Z,94918.84
2023-03-10T06:19:00.850Z,94931.34
2023-03-10T06:22:05.408Z,94950.94
2023-03-10T06:25:10.289Z,94963.69
2023-03-10T06:28:14.790Z,94950.44
2023-03-10T06:31:22.716Z,94969.94
2023-03-10T06:34:29.301Z,94980.03
2023-03-10T06:37:33.963Z,94971.41
2023-03-10T06:40:38.502Z,94967.13
2023-03-10T06:43:43.507Z,94975.66
2023-03-10T06:46:48.062Z,94972.09
2023-03-10T06:49:54.706Z,94969.16
2023-03-10T06:53:02.219Z,94934.00
2023-03-10T06:56:13.017Z,94961.50
2023-03-10T06:59:17.908Z,94961.63
2023-03-10T07:02:22.485Z,94949.38
2023-03-10T07:05:27.615Z,94964.28
2023-03-10T07:08:32.211Z,94964.31
2023-03-10T07:11:36.764Z,94973.66
2023-03-10T07:14:41.284Z,94961.56
2023-03-10T07:17:45.831Z,94965.91
2023-03-10T07:20:52.962Z,94973.09
2023-03-10T07:23:58.546Z,94966.25
2023-03-10T07:27:03.690Z,94960.56
2023-03-10T07:30:10.779Z,94959.16
2023-03-10T07:33:16.840Z,94970.97
2023-03-10T07:36:22.360Z,94971.22
2023-03-10T07:39:26.943Z,94969.41
2023-03-10T07:42:31.512Z,94965.13
2023-03-10T07:45:37.965Z,94956.09
2023-03-10T07:48:43.940Z,94943.44
2023-03-10T07:51:48.487Z,94943.75
2023-03-10T07:54:53.019Z,94943.69
2023-03-10T07:57:59.586Z,94925.16
2023-03-10T08:01:04.562Z,94932.59
2023-03-10T08:04:09.259Z,94919.50
2023-03-10T08:07:13.895Z,94910.13
2023-03-10T08:10:18.687Z,94899.03
2023-03-10T08:13:23.308Z,94899.72
2023-03-10T08:16:29.074Z,94900.19
2023-03-10T08:19:33.742Z,94907.22
2023-03-10T08:22:38.271Z,94870.72
2023-03-10T08:25:42.755Z,94863.31
2023-03-10T08:28:47.812Z,94872.09
2023-03-10T08:31:52.465Z,94869.56
2023-03-10T08:34:57.066Z,94866.38
2023-03-10T08:38:04.490Z,94866.72
2023-03-10T08:41:10.221Z,94859.88
2023-03-10T08:44:17.667Z,94850.44
2023-03-10T08:47:23.381Z,94848.50
2023-03-10T08:50:27.876Z,94842.66
2023-03-10T08:53:33.994Z,94856.19
2023-03-10T08:56:38.536Z,94851.03
2023-03-10T08:59:43.052Z,94846.03
2023-03-10T09:02:47.711Z,94844.22
2023-03-10T09:05:52.486Z,94833.09
2023-03-10T09:08:58.238Z,94793.78
2023-03-10T09:12:04.245Z,94810.50
2023-03-10T09:15:09.063Z,94804.91
2023-03-10T09:18:15.926Z,94805.69
2023-03-10T09:21:20.742Z,94804.53
2023-03-10T09:24:25.466Z,94798.50
2023-03-10T09:27:29.946Z,94793.41
2023-03-10T09:30:37.402Z,94778.91
2023-03-10T09:33:41.943Z,94782.09
2023-03-10T09:36:46.972Z,94783.03
2023-03-10T09:39:51.806Z,94774.75
2023-03-10T09:43:07.941Z,94771.47
2023-03-10T09:46:25.785Z,94773.34
2023-03-10T09:49:31.050Z,94763.16
2023-03-10T09:52:47.444Z,94764.56
2023-03-10T09:55:51.917Z,94760.31
2023-03-10T09:59:01.603Z,94762.59
2023-03-10T10:02:20.117Z,94761.66
2023-03-10T10:05:27.257Z,94755.41
2023-03-10T10:09:01.842Z,94755.63
2023-03-10T10:12:24.964Z,94752.56
2023-03-10T10:15:34.243Z,94752.75
2023-03-10T10:18:43.387Z,94754.59
2023-03-10T10:21:56.435Z,94750.66
2023-03-10T10:25:09.776Z,94757.81
2023-03-10T10:28:50.943Z,94760.53
2023-03-10T10:32:15.736Z,94757.72
2023-03-10T10:35:22.033Z,94755.75
2023-03-10T10:38:31.597Z,94758.38
2023-03-10T10:41:36.276Z,94762.38
2023-03-10T10:44:43.084Z,94756.84
2023-03-10T10:47:50.070Z,94754.50
2023-03-10T10:50:54.659Z,94749.63
2023-03-10T10:54:02.449Z,94743.16
2023-03-10T10:57:18.734Z,94740.72
2023-03-10T11:00:25.284Z,94741.03
2023-03-10T11:03:36.990Z,94722.66
2023-03-10T11:06:41.526Z,94705.72
2023-03-10T11:09:47.820Z,94736.38
2023-03-10T11:13:19.766Z,94744.75
2023-03-10T11:16:56.876Z,94723.75
2023-03-10T11:20:17.368Z,94733.28
2023-03-10T11:23:42.362Z,94727.91
2023-03-10T11:26:59.153Z,94718.94
2023-03-10T11:30:26.001Z,94718.31
2023-03-10T11:33:54.027Z,94711.47
2023-03-10T11:37:40.194Z,94708.38
2023-03-10T11:40:48.571Z,94689.66
2023-03-10T11:44:00.963Z,94687.44
2023-03-10T11:47:32.924Z,94684.66
2023-03-10T11:50:45.733Z,94679.25
2023-03-10T11:53:51.259Z,94683.31
2023-03-10T11:56:57.636Z,94680.34
2023-03-10T12:00:07.913Z,94670.31
2023-03-10T12:03:32.644Z,94683.53
2023-03-10T12:06:46.096Z,94692.16
2023-03-10T12:09:56.785Z,94679.31
2023-03-10T12:13:02.001Z,94684.34
2023-03-10T12:16:07.591Z,94686.31
2023-03-10T12:19:12.542Z,94658.00
2023-03-10T12:22:39.039Z,94671.22
2023-03-10T12:25:45.657Z,94658.63
2023-03-10T12:29:21.900Z,94668.72
2023-03-10T12:32:47.216Z,94684.50
2023-03-10T12:35:55.750Z,94691.53
2023-03-10T12:39:28.499Z,94733.97
2023-03-10T12:42:37.233Z,94735.94
2023-03-10T12:45:46.024Z,94729.50
2023-03-10T12:49:15.374Z,94721.06
2023-03-10T12:52:31.777Z,94727.69
2023-03-10T12:55:37.371Z,94715.47
2023-03-10T12:59:02.797Z,94698.59
2023-03-10T13:02:55.774Z,94706.00
2023-03-10T13:06:33.008Z,94685.88
2023-03-10T13:09:42.318Z,94682.25
2023-03-10T13:12:51.098Z,94687.03
2023-03-10T13:16:00.974Z,94682.34
2023-03-10T13:19:05.921Z,94674.03
2023-03-10T13:22:16.886Z,94680.09
2023-03-10T13:25:21.728Z,94682.53
2023-03-10T13:28:29.838Z,94686.44
2023-03-10T13:31:34.851Z,94697.69
2023-03-10T13:34:39.462Z,94701.94
2023-03-10T13:37:44.261Z,94695.25
2023-03-10T13:40:58.705Z,94678.22
2023-03-10T13:44:03.710Z,94687.44
2023-03-10T13:47:20.895Z,94676.66
2023-03-10T13:50:25.576Z,94671.44
2023-03-10T13:53:30.316Z,94663.50
2023-03-10T13:56:38.013Z,94656.38
2023-03-10T13:59:42.864Z,94668.56
2023-03-10T14:02:48.986Z,94675.34
2023-03-10T14:05:54.121Z,94659.59
2023-03-10T14:09:22.331Z,94663.19
2023-03-10T14:12:38.992Z,94680.91
2023-03-10T14:15:54.206Z,94666.13
2023-03-10T14:18:58.921Z,94644.78
2023-03-10T14:22:04.318Z,94648.38
2023-03-10T14:25:17.342Z,94639.06
2023-03-10T14:28:33.397Z,94629.00
2023-03-10T14:31:37.947Z,94614.03
2023-03-10T14:34:42.705Z,94649.63
2023-03-10T14:37:52.016Z,94640.38
2023-03-10T14:40:56.916Z,94637.13
2023-03-10T14:44:02.035Z,94624.88
2023-03-10T14:47:06.866Z,94631.63
2023-03-10T14:50:16.795Z,94633.53
2023-03-10T14:53:24.647Z,94635.22
2023-03-10T14:56:30.334Z,94624.50
2023-03-10T14:59:35.415Z,94629.19
2023-03-10T15:02:40.074Z,94599.44
2023-03-10T15:05:49.077Z,94626.69
2023-03-10T15:08:54.154Z,94603.03
2023-03-10T15:11:59.830Z,94606.34
2023-03-10T15:15:05.222Z,94610.81
2023-03-10T15:18:13.199Z,94610.53
2023-03-10T15:21:17.750Z,94608.38
2023-03-10T15:24:22.339Z,94612.53
2023-03-10T15:27:27.967Z,94612.88
2023-03-10T15:30:35.791Z,94620.84
2023-03-10T15:33:40.347Z,94644.66
2023-03-10T15:36:44.945Z,94622.53
2023-03-10T15:39:49.608Z,94630.94
2023-03-10T15:42:58.273Z,94653.66
2023-03-10T15:46:09.706Z,94625.44
2023-03-10T15:49:14.506Z,94640.84
2023-03-10T15:52:19.268Z,94619.75
2023-03-10T15:55:25.370Z,94651.91
2023-03-10T15:58:30.124Z,94634.25
2023-03-10T16:01:35.326Z,94685.84
2023-03-10T16:04:40.225Z,94700.56
2023-03-10T16:07:44.804Z,94677.91
2023-03-10T16:10:53.796Z,94685.34
2023-03-10T16:13:58.600Z,94678.00
2023-03-10T16:17:03.152Z,94687.63
2023-03-10T16:20:12.193Z,94671.69
2023-03-10T16:23:16.892Z,94688.41
2023-03-10T16:26:23.105Z,94697.31
2023-03-10T16:29:27.835Z,94681.91
2023-03-10T16:32:33.782Z,94697.31
2023-03-10T16:35:38.938Z,94675.34
2023-03-10T16:38:44.051Z,94699.91
2023-03-10T16:41:48.675Z,94690.25
2023-03-10T16:44:56.808Z,94703.84
2023-03-10T16:48:01.720Z,94699.97
2023-03-10T16:51:19.519Z,94709.09
2023-03-10T16:54:24.284Z,94712.63
2023-03-10T16:57:29.125Z,94700.38
2023-03-10T17:00:36.960Z,94732.22
2023-03-10T17:03:41.928Z,94712.63
2023-03-10T17:06:47.414Z,94715.69
2023-03-10T17:09:52.132Z,94759.09
2023-03-10T17:12:56.976Z,94708.03
2023-03-10T17:16:01.535Z,94722.50
2023-03-10T17:19:15.717Z,94768.66
2023-03-10T17:22:20.403Z,94767.53
2023-03-10T17:25:25.016Z,94765.34
2023-03-10T17:28:29.732Z,94785.38
2023-03-10T17:31:35.043Z,94785.06
2023-03-10T17:34:40.521Z,94774.13
2023-03-10T17:37:46.673Z,94807.22
2023-03-10T17:40:51.355Z,94775.66
2023-03-10T17:43:56.327Z,94779.16
2023-03-10T17:47:01.130Z,94788.63
2023-03-10T17:50:06.141Z,94792.13
2023-03-10T17:53:10.760Z,94802.16
2023-03-10T17:56:16.532Z,94797.34
2023-03-10T17:59:21.233Z,94790.59
2023-03-10T18:02:26.014Z,94785.28
2023-03-10T18:05:31.050Z,94781.91
2023-03-10T18:08:35.846Z,94798.72
2023-03-10T18:11:40.608Z,94776.25
2023-03-10T18:14:46.519Z,94791.16
2023-03-10T18:17:51.445Z,94791.16
2023-03-10T18:20:56.315Z,94764.09
2023-03-10T18:24:01.124Z,94787.44
2023-03-10T18:27:05.956Z,94777.09
2023-03-10T18:30:12.288Z,94789.50
2023-03-10T18:33:16.964Z,94777.03
2023-03-10T18:36:23.344Z,94772.19
2023-03-10T18:39:28.504Z,94788.78
2023-03-10T18:42:33.243Z,94778.13
2023-03-10T18:45:43.824Z,94795.94
2023-03-10T18:48:55.258Z,94813.44
2023-03-10T18:52:00.130Z,94813.44
2023-03-10T18:55:05.415Z,94845.63
2023-03-10T18:58:10.469Z,94851.06
2023-03-10T19:01:15.501Z,94823.63
2023-03-10T19:04:20.528Z,94868.72
2023-03-10T19:07:25.164Z,94889.50
2023-03-10T19:10:30.179Z,94876.97
2023-03-10T19:13:35.824Z,94871.91
2023-03-10T19:16:40.784Z,94893.78
2023-03-10T19:19:45.590Z,94905.97
2023-03-10T19:22:51.361Z,94899.84
2023-03-10T19:25:56.442Z,94900.69
2023-03-10T19:29:01.049Z,94899.84
2023-03-10T19:32:06.696Z,94892.69
2023-03-10T19:35:12.585Z,94904.16
2023-03-10T19:38:17.655Z,94893.09
2023-03-10T19:41:22.472Z,94903.78
2023-03-10T19:44:27.494Z,94875.34
2023-03-10T19:47:32.310Z,94905.56
2023-03-10T19:50:36.941Z,94875.41
2023-03-10T19:53:41.477Z,94899.59
2023-03-10T19:56:46.317Z,94879.31
2023-03-10T19:59:51.049Z,94859.59
2023-03-10T20:02:55.734Z,94885.09
2023-03-10T20:06:01.545Z,94875.88
2023-03-10T20:09:10.405Z,94855.84
2023-03-10T20:12:15.630Z,94880.31
2023-03-10T20:15:20.551Z,94896.78
2023-03-10T20:18:25.381Z,94915.44
2023-03-10T20:21:29.975Z,94911.56
2023-03-10T20:24:35.294Z,94911.25
2023-03-10T20:27:39.966Z,94933.72
2023-03-10T20:30:44.547Z,94916.56
2023-03-10T20:33:50.046Z,94942.94
2023-03-10T20:36:54.866Z,94902.09
2023-03-10T20:39:59.616Z,94962.09
2023-03-10T20:43:05.644Z,94947.81
2023-03-10T20:46:10.824Z,94930.06
2023-03-10T20:49:15.415Z,94930.63
2023-03-10T20:52:20.167Z,94914.72
2023-03-10T20:55:30.796Z,94920.41
2023-03-10T20:58:35.412Z,94902.50
2023-03-10T21:01:42.451Z,94914.22
2023-03-10T21:04:47.494Z,94933.91
2023-03-10T21:07:52.218Z,94932.13
2023-03-10T21:10:56.967Z,94922.72
2023-03-10T21:14:01.748Z,94946.09
2023-03-10T21:17:06.896Z,94919.75
2023-03-10T21:20:15.783Z,94932.38
2023-03-10T21:23:20.595Z,94912.25
2023-03-10T21:26:25.118Z,94920.78
2023-03-10T21:29:29.893Z,94934.13
2023-03-10T21:32:34.847Z,94931.75
2023-03-10T21:35:40.343Z,94917.88
2023-03-10T21:38:48.666Z,94931.44
2023-03-10T21:41:53.402Z,94920.16
2023-03-10T21:44:58.188Z,94917.00
2023-03-10T21:48:04.075Z,94900.91
2023-03-10T21:51:13.198Z,94926.69
2023-03-10T21:54:17.986Z,94907.28
2023-03-10T21:57:22.568Z,94894.09
2023-03-10T22:00:27.256Z,94912.94
2023-03-10T22:03:33.850Z,94891.69
2023-03-10T22:06:38.778Z,94900.78
2023-03-10T22:09:43.518Z,94883.66
2023-03-10T22:12:48.548Z,94895.91
2023-03-10T22:15:53.337Z,94917.09
2023-03-10T22:18:58.129Z,94945.50
2023-03-10T22:22:02.856Z,94941.69
2023-03-10T22:25:07.982Z,94943.44
2023-03-10T22:28:12.719Z,94974.38
2023-03-10T22:31:18.379Z,94955.25
2023-03-10T22:34:23.343Z,94939.25
2023-03-10T22:37:27.954Z,94974.50
2023-03-10T22:40:32.870Z,94963.22
2023-03-10T22:43:37.520Z,94954.25
2023-03-10T22:46:46.937Z,94989.16
2023-03-10T22:49:51.807Z,94977.63
2023-03-10T22:52:56.369Z,94978.09
2023-03-10T22:56:01.434Z,94963.88
2023-03-10T22:59:06.123Z,94980.66
2023-03-10T23:02:10.863Z,94967.03
2023-03-10T23:05:16.766Z,95001.53
2023-03-10T23:08:21.557Z,95004.19
2023-03-10T23:11:29.915Z,95006.28
2023-03-10T23:14:34.753Z,94980.44
2023-03-10T23:17:39.261Z,94984.31
2023-03-10T23:20:48.560Z,94966.63
2023-03-10T23:23:53.324Z,94975.41
2023-03-10T23:26:58.006Z,95020.88
2023-03-10T23:30:02.728Z,95003.31
2023-03-10T23:33:13.370Z,95102.00
2023-03-10T23:36:18.048Z,95065.06
2023-03-10T23:39:22.739Z,95104.25
2023-03-10T23:42:27.384Z,95109.53
2023-03-10T23:45:34.801Z,95101.31
2023-03-10T23:48:39.539Z,95094.56
2023-03-10T23:51:44.118Z,95113.41
2023-03-10T23:54:48.673Z,95118.44
2023-03-10T23:57:53.883Z,95130.47
